createdAt,value
2022-11-08T08:52:49.992Z,6.10
2022-11-08T08:55:18.666Z,6.90
2022-11-08T08:57:47.480Z,6.40
2022-11-08T09:03:05.340Z,7.00
2022-11-08T09:05:33.866Z,7.60
2022-11-08T09:08:03.662Z,8.40
2022-11-08T09:10:31.895Z,9.70
2022-11-08T09:13:00.103Z,10.70
2022-11-08T09:15:28.271Z,11.60
2022-11-08T09:17:56.757Z,12.50
2022-11-08T09:20:25.416Z,13.00
2022-11-08T09:22:53.580Z,12.80
2022-11-08T09:25:23.536Z,12.30
2022-11-08T09:27:52.464Z,11.90
2022-11-08T09:30:21.150Z,11.70
2022-11-08T09:33:04.715Z,11.80
2022-11-08T09:35:33.524Z,11.70
2022-11-08T09:38:01.709Z,11.30
2022-11-08T09:40:39.339Z,11.00
2022-11-08T09:43:24.782Z,10.80
2022-11-08T09:45:56.134Z,10.50
2022-11-08T09:48:28.684Z,10.50
2022-11-08T09:51:00.308Z,10.50
2022-11-08T09:53:35.350Z,10.30
2022-11-08T09:56:15.659Z,10.30
2022-11-08T09:58:51.710Z,10.30
2022-11-08T10:01:24.506Z,10.60
2022-11-08T10:03:57.282Z,11.00
2022-11-08T10:06:51.033Z,10.50
2022-11-08T10:09:34.833Z,10.50
2022-11-08T10:12:17.953Z,10.70
2022-11-08T10:15:01.780Z,10.80
2022-11-08T10:17:48.614Z,11.00
2022-11-08T10:20:25.311Z,11.10
2022-11-08T10:22:59.316Z,12.10
2022-11-08T10:25:34.334Z,13.10
2022-11-08T10:28:07.891Z,14.50
2022-11-08T10:30:39.957Z,15.70
2022-11-08T10:33:17.406Z,16.60
2022-11-08T10:35:49.624Z,17.30
2022-11-08T10:38:21.350Z,17.20
2022-11-08T10:40:57.289Z,17.60
2022-11-08T10:43:33.953Z,18.10
2022-11-08T10:46:02.126Z,17.50
2022-11-08T10:48:30.555Z,16.60
2022-11-08T10:50:58.608Z,16.50
2022-11-08T10:53:30.035Z,16.40
2022-11-08T10:56:01.532Z,15.40
2022-11-08T10:58:33.646Z,15.00
2022-11-08T11:01:04.791Z,14.70
2022-11-08T11:03:33.103Z,14.40
2022-11-08T11:06:02.560Z,13.30
2022-11-08T11:08:31.191Z,13.40
2022-11-08T11:11:27.544Z,13.30
2022-11-08T11:14:16.588Z,13.30
2022-11-08T11:16:57.396Z,13.00
2022-11-08T11:19:27.345Z,13.10
2022-11-08T11:21:59.523Z,13.20
2022-11-08T11:27:05.189Z,13.30
2022-11-08T11:29:36.767Z,13.20
2022-11-08T11:32:25.027Z,13.20
2022-11-08T11:34:57.593Z,13.40
2022-11-08T11:37:40.854Z,13.30
2022-11-08T11:40:17.363Z,13.00
2022-11-08T11:42:55.440Z,13.30
2022-11-08T11:45:30.800Z,13.40
2022-11-08T11:48:02.133Z,13.60
2022-11-08T11:50:35.033Z,13.60
2022-11-08T11:53:06.236Z,13.70
2022-11-08T11:56:12.402Z,13.80
2022-11-08T11:58:59.121Z,14.00
2022-11-08T12:01:38.568Z,14.20
2022-11-08T12:04:29.167Z,14.40
2022-11-08T12:07:05.546Z,14.50
2022-11-08T12:09:49.504Z,14.60
2022-11-08T12:12:26.958Z,14.60
2022-11-08T12:15:02.269Z,14.70
2022-11-08T12:17:49.650Z,14.70
2022-11-08T12:20:28.878Z,14.50
2022-11-08T12:23:11.198Z,15.10
2022-11-08T12:25:48.208Z,15.50
2022-11-08T12:28:31.120Z,16.40
2022-11-08T12:31:08.420Z,16.30
2022-11-08T12:33:53.885Z,17.00
2022-11-08T12:36:33.936Z,18.70
2022-11-08T12:39:10.849Z,19.70
2022-11-08T12:41:49.087Z,19.40
2022-11-08T12:44:46.547Z,19.50
2022-11-08T12:47:29.047Z,19.30
2022-11-08T12:50:12.977Z,18.80
2022-11-08T12:52:54.841Z,18.10
2022-11-08T12:55:27.077Z,17.40
2022-11-08T12:57:59.147Z,17.10
2022-11-08T13:00:29.543Z,16.90
2022-11-08T13:03:06.794Z,17.00
2022-11-08T13:05:39.091Z,17.10
2022-11-08T13:08:14.216Z,18.00
2022-11-08T13:10:50.002Z,19.20
2022-11-08T13:13:29.184Z,20.30
2022-11-08T13:16:12.559Z,21.50
2022-11-08T13:18:47.853Z,22.40
2022-11-08T13:21:38.460Z,22.70
2022-11-08T13:24:45.326Z,21.90
2022-11-08T13:27:33.816Z,21.30
2022-11-08T13:30:22.007Z,20.20
2022-11-08T13:32:56.389Z,19.10
2022-11-08T13:35:32.033Z,18.10
2022-11-08T13:38:16.144Z,17.10
2022-11-08T13:41:09.080Z,16.30
2022-11-08T13:46:44.081Z,16.00
2022-11-08T13:49:18.011Z,16.50
2022-11-08T13:54:49.966Z,16.60
2022-11-08T13:57:20.600Z,16.40
2022-11-08T13:59:59.060Z,16.20
2022-11-08T14:02:43.337Z,16.10
2022-11-08T14:05:47.938Z,16.00
2022-11-08T14:08:22.053Z,15.90
2022-11-08T14:11:19.001Z,16.20
2022-11-08T14:14:04.085Z,16.80
2022-11-08T14:16:39.453Z,17.00
2022-11-08T14:19:20.131Z,16.50
2022-11-08T14:21:50.649Z,16.00
2022-11-08T14:24:22.774Z,15.50
2022-11-08T14:26:52.984Z,15.10
2022-11-08T14:29:24.399Z,14.80
2022-11-08T14:32:04.024Z,14.70
2022-11-08T14:34:34.798Z,14.50
2022-11-08T14:37:04.589Z,14.30
2022-11-08T14:39:35.615Z,14.30
2022-11-08T14:42:14.276Z,14.50
2022-11-08T14:44:45.480Z,14.40
2022-11-08T14:47:25.046Z,14.20
2022-11-08T14:52:24.542Z,13.70
2022-11-08T14:55:02.648Z,13.40
2022-11-08T14:57:38.471Z,13.00
2022-11-08T15:00:15.934Z,12.80
2022-11-08T15:02:47.670Z,12.60
2022-11-08T15:05:35.942Z,12.40
2022-11-08T15:08:07.576Z,12.20
2022-11-08T15:13:05.358Z,11.90
2022-11-08T15:15:35.059Z,11.70
2022-11-08T15:18:14.344Z,11.60
2022-11-08T15:20:54.813Z,11.40
2022-11-08T15:23:37.087Z,11.20
2022-11-08T15:26:05.241Z,11.10
2022-11-08T15:28:35.767Z,12.80
2022-11-08T15:31:05.125Z,10.90
2022-11-08T15:33:38.363Z,10.80
2022-11-08T15:36:14.170Z,10.70
2022-11-08T15:38:44.108Z,10.60
2022-11-08T15:41:40.521Z,10.50
2022-11-08T15:44:23.333Z,10.40
2022-11-08T15:46:54.275Z,10.30
2022-11-08T15:49:24.626Z,10.20
2022-11-08T15:51:54.092Z,10.10
2022-11-08T15:54:23.287Z,10.10
2022-11-08T15:56:59.850Z,10.00
2022-11-08T15:59:40.647Z,9.90
2022-11-08T16:02:14.675Z,9.80
2022-11-08T16:17:12.289Z,9.90
2022-11-08T16:32:12.298Z,9.30
2022-11-08T16:40:20.154Z,9.20
2022-11-08T16:54:35.104Z,8.90
2022-11-08T17:02:33.156Z,8.70
2022-11-08T17:07:36.027Z,8.60
2022-11-08T17:10:08.378Z,8.60
2022-11-08T17:15:14.648Z,8.50
2022-11-08T17:17:46.221Z,8.40
2022-11-08T17:20:20.447Z,8.10
2022-11-08T17:22:50.190Z,8.40
2022-11-08T17:25:22.544Z,11.70
2022-11-08T17:30:26.469Z,8.40
2022-11-08T17:40:27.491Z,9.70
2022-11-08T17:52:55.762Z,7.70
2022-11-08T17:57:55.516Z,7.70
2022-11-08T18:15:22.851Z,10.10
2022-11-08T18:32:48.917Z,7.40
2022-11-08T18:50:11.312Z,7.20
2022-11-08T18:55:09.749Z,5.90
2022-11-08T19:00:08.309Z,7.20
2022-11-08T19:02:36.496Z,7.20
2022-11-08T19:07:35.165Z,7.10
2022-11-08T19:17:32.119Z,7.10
2022-11-08T19:20:00.875Z,7.10
2022-11-08T19:22:29.412Z,7.10
2022-11-08T19:24:58.986Z,7.00
2022-11-08T19:27:27.317Z,7.00
2022-11-08T19:29:55.518Z,7.00
2022-11-08T19:32:24.151Z,7.00
2022-11-08T19:34:52.502Z,7.00
